Time,TemperatureF,DewpointF,PressureIn,WindDirection,WindDirectionDegrees,WindSpeedMPH,WindSpeedGustMPH,Humidity,HourlyPrecipIn,Conditions,Clouds,dailyrainin,SoftwareType,DateUTC
2015-09-02 00:01:00,75.2,73.0,30.05,SSW,200,0.0,0.0,93,0.00,,---,0.01,VWS V15.00,2015-09-02 04:01:00,
2015-09-02 00:06:00,75.2,73.0,30.05,SSW,200,0.0,0.0,93,0.00,,---,0.00,VWS V15.00,2015-09-02 04:06:00,
2015-09-02 00:11:00,75.2,73.0,30.05,SSW,200,0.0,1.0,93,0.00,,---,0.00,VWS V15.00,2015-09-02 04:11:00,
2015-09-02 00:16:00,75.2,73.0,30.05,SSW,200,0.0,1.0,93,0.00,,---,0.00,VWS V15.00,2015-09-02 04:16:00,
2015-09-02 00:21:00,75.1,72.9,30.05,SSW,200,0.0,1.0,93,0.00,,---,0.00,VWS V15.00,2015-09-02 04:21:00,
2015-09-02 00:26:00,75.1,72.9,30.04,SSW,200,0.0,1.0,93,0.00,,---,0.00,VWS V15.00,2015-09-02 04:26:00,
2015-09-02 00:31:00,75.0,72.8,30.04,SSW,200,0.0,1.0,93,0.00,,---,0.00,VWS V15.00,2015-09-02 04:31:00,
2015-09-02 00:36:00,74.9,72.7,30.05,SSW,200,0.0,1.0,93,0.00,,---,0.00,VWS V15.00,2015-09-02 04:36:00,
2015-09-02 00:41:00,74.8,72.6,30.05,SSW,200,0.0,1.0,93,0.00,,---,0.00,VWS V15.00,2015-09-02 04:41:00,
2015-09-02 00:46:00,74.7,72.6,30.05,SSW,200,0.0,1.0,93,0.00,,---,0.00,VWS V15.00,2015-09-02 04:46:00,
2015-09-02 00:51:00,74.5,72.3,30.05,SSW,200,0.0,1.0,93,0.00,,---,0.00,VWS V15.00,2015-09-02 04:51:00,
2015-09-02 00:56:00,74.6,72.8,30.05,SSW,200,0.0,1.0,94,0.00,,---,0.00,VWS V15.00,2015-09-02 04:56:00,
2015-09-02 01:01:00,74.6,72.8,30.05,SSW,200,0.0,1.0,94,0.00,,---,0.00,VWS V15.00,2015-09-02 05:01:00,
2015-09-02 01:06:00,74.5,72.7,30.05,SSW,200,0.0,0.0,94,0.00,,---,0.00,VWS V15.00,2015-09-02 05:06:00,
2015-09-02 01:11:00,74.4,72.6,30.05,SSW,200,0.0,1.0,94,0.00,,---,0.00,VWS V15.00,2015-09-02 05:11:00,
2015-09-02 01:16:00,74.4,72.6,30.05,SSW,200,0.0,1.0,94,0.00,,---,0.00,VWS V15.00,2015-09-02 05:16:00,
2015-09-02 01:21:00,74.5,72.7,30.05,SSW,200,0.0,1.0,94,0.00,,---,0.00,VWS V15.00,2015-09-02 05:21:00,
2015-09-02 01:26:00,74.4,72.6,30.05,SSW,200,0.0,1.0,94,0.00,,---,0.00,VWS V15.00,2015-09-02 05:26:00,
2015-09-02 01:31:00,74.3,72.5,30.05,SSW,200,0.0,1.0,94,0.00,,---,0.00,VWS V15.00,2015-09-02 05:31:00,
2015-09-02 01:36:00,74.2,72.4,30.05,SSW,200,0.0,1.0,94,0.00,,---,0.00,VWS V15.00,2015-09-02 05:36:00,
2015-09-02 01:41:00,74.2,72.4,30.05,SSW,200,0.0,1.0,94,0.00,,---,0.00,VWS V15.00,2015-09-02 05:41:00,
2015-09-02 01:46:00,74.2,72.7,30.04,SSW,200,0.0,1.0,95,0.00,,---,0.00,VWS V15.00,2015-09-02 05:46:00,
2015-09-02 01:51:00,74.1,72.3,30.04,SSW,200,0.0,1.0,94,0.00,,---,0.00,VWS V15.00,2015-09-02 05:51:00,
2015-09-02 01:56:00,73.9,72.1,30.04,SSW,200,0.0,1.0,94,0.00,,---,0.00,VWS V15.00,2015-09-02 05:56:00,
2015-09-02 02:01:00,73.9,72.1,30.04,SSW,200,0.0,1.0,94,0.00,,---,0.00,VWS V15.00,2015-09-02 06:01:00,
2015-09-02 02:06:00,73.9,72.4,30.04,SSW,200,0.0,0.0,95,0.00,,---,0.00,VWS V15.00,2015-09-02 06:06:00,
2015-09-02 02:11:00,74.0,72.5,30.04,SSW,200,0.0,0.0,95,0.00,,---,0.00,VWS V15.00,2015-09-02 06:11:00,
2015-09-02 02:16:00,73.8,72.0,30.04,SSW,200,0.0,1.0,94,0.00,,---,0.00,VWS V15.00,2015-09-02 06:16:00,
2015-09-02 02:21:00,73.6,71.8,30.04,SSW,200,0.0,1.0,94,0.00,,---,0.00,VWS V15.00,2015-09-02 06:21:00,
2015-09-02 02:26:00,73.3,71.5,30.04,SSW,200,0.0,1.0,94,0.00,,---,0.00,VWS V15.00,2015-09-02 06:26:00,
2015-09-02 02:31:00,73.3,71.5,30.04,SSW,200,0.0,1.0,94,0.00,,---,0.00,VWS V15.00,2015-09-02 06:31:00,
2015-09-02 02:36:00,73.2,71.4,30.04,SSW,200,0.0,1.0,94,0.00,,---,0.00,VWS V15.00,2015-09-02 06:36:00,
2015-09-02 02:41:00,73.6,72.1,30.03,SSW,200,0.0,1.0,95,0.00,,---,0.00,VWS V15.00,2015-09-02 06:41:00,
2015-09-02 02:46:00,74.0,72.5,30.03,SSW,200,0.0,1.0,95,0.00,,---,0.00,VWS V15.00,2015-09-02 06:46:00,
2015-09-02 02:51:00,74.2,72.7,30.03,SSW,200,0.0,1.0,95,0.00,,---,0.00,VWS V15.00,2015-09-02 06:51:00,
2015-09-02 02:56:00,74.2,72.7,30.03,SSW,200,0.0,1.0,95,0.00,,---,0.00,VWS V15.00,2015-09-02 06:56:00,
2015-09-02 03:01:00,74.2,72.7,30.03,SSW,200,0.0,1.0,95,0.00,,---,0.00,VWS V15.00,2015-09-02 07:01:00,
2015-09-02 03:06:00,74.2,72.7,30.03,SSW,200,0.0,0.0,95,0.00,,---,0.00,VWS V15.00,2015-09-02 07:06:00,
2015-09-02 03:11:00,74.2,72.7,30.03,SSW,200,0.0,0.0,95,0.00,,---,0.00,VWS V15.00,2015-09-02 07:11:00,
2015-09-02 03:16:00,74.2,72.7,30.03,SSW,200,0.0,0.0,95,0.00,,---,0.00,VWS V15.00,2015-09-02 07:16:00,
2015-09-02 03:21:00,74.2,72.7,30.03,SSW,200,0.0,0.0,95,0.00,,---,0.00,VWS V15.00,2015-09-02 07:21:00,
2015-09-02 03:26:00,74.2,72.7,30.03,SSW,200,0.0,0.0,95,0.00,,---,0.00,VWS V15.00,2015-09-02 07:26:00,
2015-09-02 03:31:00,74.1,72.6,30.03,SSW,200,0.0,0.0,95,0.00,,---,0.00,VWS V15.00,2015-09-02 07:31:00,
2015-09-02 03:36:00,74.1,72.6,30.03,SSW,200,0.0,0.0,95,0.00,,---,0.00,VWS V15.00,2015-09-02 07:36:00,
2015-09-02 03:41:00,74.1,72.6,30.03,SSW,200,0.0,0.0,95,0.00,,---,0.00,VWS V15.00,2015-09-02 07:41:00,
2015-09-02 03:46:00,74.1,72.6,30.03,SSW,200,0.0,0.0,95,0.00,,---,0.00,VWS V15.00,2015-09-02 07:46:00,
2015-09-02 03:51:00,74.0,72.5,30.03,SSW,200,0.0,0.0,95,0.00,,---,0.00,VWS V15.00,2015-09-02 07:51:00,
2015-09-02 03:56:00,74.0,72.5,30.03,SSW,200,0.0,0.0,95,0.00,,---,0.00,VWS V15.00,2015-09-02 07:56:00,
2015-09-02 04:01:00,74.0,72.5,30.03,SSW,200,0.0,0.0,95,0.00,,---,0.00,VWS V15.00,2015-09-02 08:01:00,
2015-09-02 04:06:00,73.8,72.3,30.03,SSW,200,0.0,0.0,95,0.00,,---,0.00,VWS V15.00,2015-09-02 08:06:00,
2015-09-02 04:11:00,73.6,72.1,30.03,SSW,200,0.0,0.0,95,0.00,,---,0.00,VWS V15.00,2015-09-02 08:11:00,
2015-09-02 04:16:00,73.6,72.1,30.03,SSW,200,0.0,0.0,95,0.00,,---,0.00,VWS V15.00,2015-09-02 08:16:00,
2015-09-02 04:21:00,73.7,72.2,30.03,SSW,200,0.0,0.0,95,0.00,,---,0.00,VWS V15.00,2015-09-02 08:21:00,
2015-09-02 04:26:00,73.7,72.2,30.03,SSW,200,0.0,0.0,95,0.00,,---,0.00,VWS V15.00,2015-09-02 08:26:00,
2015-09-02 04:31:00,73.8,72.3,30.03,SSW,200,0.0,1.0,95,0.00,,---,0.00,VWS V15.00,2015-09-02 08:31:00,
2015-09-02 04:36:00,73.7,72.2,30.03,SSW,200,0.0,1.0,95,0.00,,---,0.00,VWS V15.00,2015-09-02 08:36:00,
2015-09-02 04:41:00,73.7,72.2,30.03,SSW,200,0.0,1.0,95,0.00,,---,0.00,VWS V15.00,2015-09-02 08:41:00,
2015-09-02 04:46:00,73.8,72.3,30.03,SSW,200,0.0,1.0,95,0.00,,---,0.00,VWS V15.00,2015-09-02 08:46:00,
2015-09-02 04:51:00,73.8,72.3,30.03,SSW,200,0.0,1.0,95,0.00,,---,0.00,VWS V15.00,2015-09-02 08:51:00,
2015-09-02 04:56:00,73.6,72.1,30.03,SSW,200,0.0,1.0,95,0.00,,---,0.00,VWS V15.00,2015-09-02 08:56:00,
2015-09-02 05:01:00,73.4,71.9,30.03,SSW,200,0.0,1.0,95,0.00,,---,0.00,VWS V15.00,2015-09-02 09:01:00,
2015-09-02 05:06:00,73.4,71.9,30.03,SSW,200,0.0,0.0,95,0.00,,---,0.00,VWS V15.00,2015-09-02 09:06:00,
2015-09-02 05:11:00,73.5,72.0,30.03,SSW,200,0.0,0.0,95,0.00,,---,0.00,VWS V15.00,2015-09-02 09:11:00,
2015-09-02 05:16:00,73.6,72.4,30.03,SSW,200,0.0,0.0,96,0.00,,---,0.00,VWS V15.00,2015-09-02 09:16:00,
2015-09-02 05:21:00,73.5,72.0,30.03,SSW,200,0.0,0.0,95,0.00,,---,0.00,VWS V15.00,2015-09-02 09:21:00,
2015-09-02 05:26:00,73.2,71.7,30.03,SSW,200,0.0,0.0,95,0.00,,---,0.00,VWS V15.00,2015-09-02 09:26:00,
2015-09-02 05:31:00,73.0,71.5,30.03,SSW,200,0.0,0.0,95,0.00,,---,0.00,VWS V15.00,2015-09-02 09:31:00,
2015-09-02 05:36:00,72.8,71.3,30.03,SSW,200,0.0,0.0,95,0.00,,---,0.00,VWS V15.00,2015-09-02 09:36:00,
2015-09-02 05:41:00,72.6,71.1,30.03,SSW,200,0.0,0.0,95,0.00,,---,0.00,VWS V15.00,2015-09-02 09:41:00,
2015-09-02 05:46:00,72.6,71.1,30.03,SSW,200,0.0,0.0,95,0.00,,---,0.00,VWS V15.00,2015-09-02 09:46:00,
2015-09-02 05:51:00,72.8,71.3,30.03,SSW,200,0.0,0.0,95,0.00,,---,0.00,VWS V15.00,2015-09-02 09:51:00,
2015-09-02 05:56:00,72.9,71.4,30.03,SSW,200,0.0,0.0,95,0.00,,---,0.00,VWS V15.00,2015-09-02 09:56:00,
2015-09-02 06:01:00,72.8,71.3,30.03,SSW,200,0.0,0.0,95,0.00,,---,0.00,VWS V15.00,2015-09-02 10:01:00,
2015-09-02 06:06:00,72.8,71.3,30.03,SSW,200,0.0,0.0,95,0.00,,---,0.00,VWS V15.00,2015-09-02 10:06:00,
2015-09-02 06:11:00,73.1,71.9,30.03,SSW,200,0.0,0.0,96,0.00,,---,0.00,VWS V15.00,2015-09-02 10:11:00,
2015-09-02 06:16:00,73.4,72.2,30.03,SSW,200,0.0,1.0,96,0.00,,---,0.00,VWS V15.00,2015-09-02 10:16:00,
2015-09-02 06:21:00,73.6,72.4,30.03,SSW,200,0.0,1.0,96,0.00,,---,0.00,VWS V15.00,2015-09-02 10:21:00,
2015-09-02 06:26:00,73.7,72.5,30.03,SSW,200,0.0,1.0,96,0.00,,---,0.00,VWS V15.00,2015-09-02 10:26:00,
2015-09-02 06:31:00,73.8,72.6,30.04,SSW,200,0.0,1.0,96,0.00,,---,0.00,VWS V15.00,2015-09-02 10:31:00,
2015-09-02 06:36:00,73.7,72.5,30.04,SSW,200,0.0,1.0,96,0.00,,---,0.00,VWS V15.00,2015-09-02 10:36:00,
2015-09-02 06:41:00,73.6,72.4,30.04,SSW,200,0.0,1.0,96,0.00,,---,0.00,VWS V15.00,2015-09-02 10:41:00,
2015-09-02 06:46:00,73.6,72.1,30.04,SSW,200,0.0,1.0,95,0.00,,---,0.00,VWS V15.00,2015-09-02 10:46:00,
2015-09-02 06:51:00,73.4,71.9,30.05,SSW,200,0.0,1.0,95,0.00,,---,0.00,VWS V15.00,2015-09-02 10:51:00,
2015-09-02 06:56:00,73.5,72.3,30.05,SSW,200,0.0,1.0,96,0.00,,---,0.00,VWS V15.00,2015-09-02 10:56:00,
2015-09-02 07:06:00,73.4,72.2,30.05,SSW,200,0.0,0.0,96,0.00,,---,0.00,VWS V15.00,2015-09-02 11:06:00,
2015-09-02 07:11:00,73.3,72.1,30.05,SSW,200,0.0,0.0,96,0.00,,---,0.00,VWS V15.00,2015-09-02 11:11:00,
2015-09-02 07:15:00,73.4,72.2,30.05,SSW,200,0.0,0.0,96,0.00,,---,0.00,VWS V15.00,2015-09-02 11:15:00,
2015-09-02 07:20:00,73.5,72.3,30.05,SSW,200,0.0,0.0,96,0.00,,---,0.00,VWS V15.00,2015-09-02 11:20:00,
2015-09-02 07:26:00,73.7,72.5,30.05,SSW,200,0.0,0.0,96,0.00,,---,0.00,VWS V15.00,2015-09-02 11:26:00,
2015-09-02 07:31:00,73.9,72.7,30.05,SSW,200,0.0,1.0,96,0.00,,---,0.00,VWS V15.00,2015-09-02 11:31:00,
2015-09-02 07:36:00,74.1,72.9,30.05,SSW,200,0.0,1.0,96,0.00,,---,0.00,VWS V15.00,2015-09-02 11:36:00,
2015-09-02 07:40:00,74.2,73.0,30.06,SSW,200,0.0,1.0,96,0.00,,---,0.00,VWS V15.00,2015-09-02 11:40:00,
2015-09-02 07:45:00,74.3,73.1,30.06,SSW,200,0.0,1.0,96,0.00,,---,0.00,VWS V15.00,2015-09-02 11:45:00,
2015-09-02 07:50:00,74.4,73.2,30.06,SSW,200,0.0,1.0,96,0.00,,---,0.00,VWS V15.00,2015-09-02 11:50:00,
2015-09-02 07:55:00,74.6,73.4,30.06,SSW,200,0.0,2.0,96,0.00,,---,0.00,VWS V15.00,2015-09-02 11:55:00,
2015-09-02 08:00:00,74.9,73.7,30.06,SSW,200,2.0,3.0,96,0.00,,---,0.00,VWS V15.00,2015-09-02 12:00:00,
2015-09-02 08:05:00,75.1,73.9,30.06,SSW,200,2.0,4.0,96,0.00,,---,0.00,VWS V15.00,2015-09-02 12:05:00,
2015-09-02 08:11:00,75.3,74.1,30.06,SSW,200,3.0,5.0,96,0.00,,---,0.00,VWS V15.00,2015-09-02 12:11:00,
2015-09-02 08:16:00,75.5,74.3,30.06,SW,225,1.0,6.0,96,0.00,,---,0.00,VWS V15.00,2015-09-02 12:16:00,
2015-09-02 08:21:00,75.6,74.4,30.06,WSW,254,3.0,6.0,96,0.00,,---,0.00,VWS V15.00,2015-09-02 12:21:00,
2015-09-02 08:26:00,75.7,74.5,30.06,WSW,255,2.0,6.0,96,0.00,,---,0.00,VWS V15.00,2015-09-02 12:26:00,
2015-09-02 08:31:00,75.9,74.7,30.06,WSW,255,2.0,6.0,96,0.00,,---,0.00,VWS V15.00,2015-09-02 12:31:00,
2015-09-02 08:36:00,76.1,74.9,30.06,WNW,293,5.0,8.0,96,0.00,,---,0.00,VWS V15.00,2015-09-02 12:36:00,
2015-09-02 08:41:00,76.2,75.0,30.06,NW,306,1.0,8.0,96,0.00,,---,0.00,VWS V15.00,2015-09-02 12:41:00,
2015-09-02 08:46:00,76.3,75.1,30.06,NW,306,1.0,8.0,96,0.00,,---,0.00,VWS V15.00,2015-09-02 12:46:00,
2015-09-02 08:50:00,76.7,75.5,30.05,NW,320,5.0,8.0,96,0.00,,---,0.00,VWS V15.00,2015-09-02 12:50:00,
2015-09-02 08:55:00,76.9,75.7,30.05,NW,313,5.0,8.0,96,0.00,,---,0.00,VWS V15.00,2015-09-02 12:55:00,
2015-09-02 09:01:00,77.1,75.6,30.05,NW,314,4.0,9.0,95,0.00,,---,0.00,VWS V15.00,2015-09-02 13:01:00,
2015-09-02 09:06:00,77.4,75.9,30.05,WNW,302,1.0,8.0,95,0.00,,---,0.00,VWS V15.00,2015-09-02 13:06:00,
2015-09-02 09:10:00,77.6,75.7,30.05,WNW,302,4.0,8.0,94,0.00,,---,0.00,VWS V15.00,2015-09-02 13:10:00,
2015-09-02 09:15:00,78.1,76.2,30.05,WNW,302,2.0,8.0,94,0.00,,---,0.00,VWS V15.00,2015-09-02 13:15:00,
2015-09-02 09:20:00,78.4,75.9,30.05,NW,315,9.0,9.0,92,0.00,,---,0.00,VWS V15.00,2015-09-02 13:20:00,
2015-09-02 09:25:00,78.8,75.9,30.05,NW,325,4.0,9.0,91,0.00,,---,0.00,VWS V15.00,2015-09-02 13:25:00,
2015-09-02 09:30:00,79.2,76.3,30.05,NNW,329,4.0,9.0,91,0.00,,---,0.00,VWS V15.00,2015-09-02 13:30:00,
2015-09-02 09:35:00,79.8,76.6,30.05,NNW,330,5.0,9.0,90,0.00,,---,0.00,VWS V15.00,2015-09-02 13:35:00,
2015-09-02 09:40:00,80.2,76.7,30.04,NW,325,2.0,9.0,89,0.00,,---,0.00,VWS V15.00,2015-09-02 13:40:00,
2015-09-02 09:41:00,80.3,76.8,30.04,NW,325,2.0,9.0,89,0.00,,---,0.00,VWS V15.00,2015-09-02 13:41:00,
2015-09-02 09:42:00,80.4,76.9,30.04,NW,325,2.0,9.0,89,0.00,,---,0.00,VWS V15.00,2015-09-02 13:42:00,
2015-09-02 09:47:00,80.7,76.5,30.04,NW,326,6.0,9.0,87,0.00,,---,0.00,VWS V15.00,2015-09-02 13:47:00,
2015-09-02 09:52:00,80.9,76.3,30.04,NW,325,4.0,9.0,86,0.00,,---,0.00,VWS V15.00,2015-09-02 13:52:00,
2015-09-02 09:57:00,81.3,76.7,30.04,WNW,298,4.0,9.0,86,0.00,,---,0.00,VWS V15.00,2015-09-02 13:57:00,
2015-09-02 10:02:00,81.7,76.4,30.04,NW,315,7.0,7.0,84,0.00,,---,0.00,VWS V15.00,2015-09-02 14:02:00,
2015-09-02 10:07:00,82.0,76.3,30.05,NW,306,6.0,8.0,83,0.00,,---,0.00,VWS V15.00,2015-09-02 14:07:00,
2015-09-02 10:12:00,82.4,76.7,30.05,NNW,329,8.0,10.0,83,0.00,,---,0.00,VWS V15.00,2015-09-02 14:12:00,
2015-09-02 10:17:00,82.7,76.7,30.05,NW,326,5.0,10.0,82,0.00,,---,0.00,VWS V15.00,2015-09-02 14:17:00,
2015-09-02 10:22:00,83.1,76.7,30.05,NNW,329,1.0,10.0,81,0.00,,---,0.00,VWS V15.00,2015-09-02 14:22:00,
2015-09-02 10:27:00,83.8,77.0,30.05,NW,321,7.0,10.0,80,0.00,,---,0.00,VWS V15.00,2015-09-02 14:27:00,
2015-09-02 10:32:00,84.0,76.8,30.05,NW,316,6.0,10.0,79,0.00,,---,0.00,VWS V15.00,2015-09-02 14:32:00,
2015-09-02 10:37:00,84.3,76.3,30.05,NW,322,5.0,10.0,77,0.00,,---,0.00,VWS V15.00,2015-09-02 14:37:00,
2015-09-02 10:42:00,84.5,76.5,30.05,WNW,301,7.0,10.0,77,0.00,,---,0.00,VWS V15.00,2015-09-02 14:42:00,
2015-09-02 10:47:00,84.6,76.6,30.05,WNW,300,6.0,10.0,77,0.00,,---,0.00,VWS V15.00,2015-09-02 14:47:00,
2015-09-02 10:52:00,84.7,76.7,30.05,WNW,300,0.0,10.0,77,0.00,,---,0.00,VWS V15.00,2015-09-02 14:52:00,
2015-09-02 10:57:00,85.2,76.8,30.05,WNW,297,4.0,10.0,76,0.00,,---,0.00,VWS V15.00,2015-09-02 14:57:00,
2015-09-02 11:02:00,85.2,76.4,30.05,WNW,301,1.0,4.0,75,0.00,,---,0.00,VWS V15.00,2015-09-02 15:02:00,
2015-09-02 11:08:00,85.7,76.9,30.04,WNW,302,6.0,7.0,75,0.00,,---,0.00,VWS V15.00,2015-09-02 15:08:00,
2015-09-02 11:13:00,86.3,76.6,30.04,WNW,302,0.0,7.0,73,0.00,,---,0.00,VWS V15.00,2015-09-02 15:13:00,
2015-09-02 11:18:00,86.9,77.2,30.04,WNW,302,2.0,7.0,73,0.00,,---,0.00,VWS V15.00,2015-09-02 15:18:00,
2015-09-02 11:23:00,87.3,76.8,30.05,WNW,302,2.0,7.0,71,0.00,,---,0.00,VWS V15.00,2015-09-02 15:23:00,
2015-09-02 11:28:00,87.5,76.9,30.05,NW,317,5.0,7.0,71,0.00,,---,0.00,VWS V15.00,2015-09-02 15:28:00,
2015-09-02 11:33:00,87.9,77.3,30.05,NW,313,2.0,7.0,71,0.00,,---,0.00,VWS V15.00,2015-09-02 15:33:00,
2015-09-02 11:38:00,88.5,77.5,30.05,NW,313,0.0,7.0,70,0.00,,---,0.00,VWS V15.00,2015-09-02 15:38:00,
2015-09-02 11:43:00,88.5,76.6,30.04,NW,310,4.0,9.0,68,0.00,,---,0.00,VWS V15.00,2015-09-02 15:43:00,
2015-09-02 11:48:00,88.2,75.4,30.04,NW,307,5.0,9.0,66,0.00,,---,0.00,VWS V15.00,2015-09-02 15:48:00,
2015-09-02 11:53:00,88.0,76.1,30.04,WNW,302,2.0,9.0,68,0.00,,---,0.00,VWS V15.00,2015-09-02 15:53:00,
2015-09-02 11:58:00,88.5,76.2,30.04,NNW,328,4.0,9.0,67,0.00,,---,0.00,VWS V15.00,2015-09-02 15:58:00,
2015-09-02 12:03:00,88.6,75.8,30.04,NW,321,4.0,7.0,66,0.00,,---,0.00,VWS V15.00,2015-09-02 16:03:00,
2015-09-02 12:08:00,88.5,76.2,30.04,NW,317,4.0,7.0,67,0.00,,---,0.00,VWS V15.00,2015-09-02 16:08:00,
2015-09-02 12:13:00,88.6,76.2,30.04,NW,317,0.0,7.0,67,0.00,,---,0.00,VWS V15.00,2015-09-02 16:13:00,
2015-09-02 12:18:00,89.1,75.8,30.04,WNW,298,7.0,8.0,65,0.00,,---,0.00,VWS V15.00,2015-09-02 16:18:00,
2015-09-02 12:23:00,89.0,75.7,30.04,North,351,8.0,12.0,65,0.00,,---,0.00,VWS V15.00,2015-09-02 16:23:00,
2015-09-02 12:33:00,89.8,75.1,30.03,NNW,348,2.0,12.0,62,0.00,,---,0.00,VWS V15.00,2015-09-02 16:33:00,
2015-09-02 12:38:00,89.6,74.9,30.03,NNW,348,0.0,12.0,62,0.00,,---,0.00,VWS V15.00,2015-09-02 16:38:00,
2015-09-02 12:43:00,89.9,75.1,30.03,NNW,348,1.0,12.0,62,0.00,,---,0.00,VWS V15.00,2015-09-02 16:43:00,
2015-09-02 12:48:00,90.1,74.3,30.03,NNW,336,4.0,12.0,60,0.00,,---,0.00,VWS V15.00,2015-09-02 16:48:00,
2015-09-02 12:53:00,89.5,74.3,30.03,NNW,327,6.0,12.0,61,0.00,,---,0.00,VWS V15.00,2015-09-02 16:53:00,
2015-09-02 12:58:00,89.0,74.3,30.03,NNW,327,0.0,12.0,62,0.00,,---,0.00,VWS V15.00,2015-09-02 16:58:00,
2015-09-02 13:03:00,89.3,75.1,30.03,NNW,327,2.0,4.0,63,0.00,,---,0.00,VWS V15.00,2015-09-02 17:03:00,
2015-09-02 13:08:00,89.9,75.6,30.03,NNW,327,1.0,4.0,63,0.00,,---,0.00,VWS V15.00,2015-09-02 17:08:00,
2015-09-02 13:13:00,90.2,74.9,30.03,NNW,327,0.0,4.0,61,0.00,,---,0.00,VWS V15.00,2015-09-02 17:13:00,
2015-09-02 13:18:00,90.5,75.7,30.02,NW,323,5.0,6.0,62,0.00,,---,0.00,VWS V15.00,2015-09-02 17:18:00,
2015-09-02 13:23:00,90.2,74.9,30.02,NW,322,4.0,6.0,61,0.00,,---,0.00,VWS V15.00,2015-09-02 17:23:00,
2015-09-02 13:28:00,90.2,74.4,30.02,NW,322,0.0,6.0,60,0.00,,---,0.00,VWS V15.00,2015-09-02 17:28:00,
2015-09-02 13:33:00,90.4,74.6,30.02,NW,322,0.0,6.0,60,0.00,,---,0.00,VWS V15.00,2015-09-02 17:33:00,
2015-09-02 13:38:00,90.8,74.5,30.02,NW,323,4.0,8.0,59,0.00,,---,0.00,VWS V15.00,2015-09-02 17:38:00,
2015-09-02 13:43:00,91.0,74.2,30.01,NW,313,6.0,8.0,58,0.00,,---,0.00,VWS V15.00,2015-09-02 17:43:00,
2015-09-02 13:48:00,90.6,73.8,30.01,WNW,300,2.0,8.0,58,0.00,,---,0.00,VWS V15.00,2015-09-02 17:48:00,
2015-09-02 13:53:00,90.7,72.3,30.01,NW,309,4.0,8.0,55,0.00,,---,0.00,VWS V15.00,2015-09-02 17:53:00,
2015-09-02 13:58:00,90.9,72.0,30.01,NW,309,0.0,8.0,54,0.00,,---,0.00,VWS V15.00,2015-09-02 17:58:00,
2015-09-02 14:03:00,91.6,73.2,30.01,NW,309,0.0,1.0,55,0.00,,---,0.00,VWS V15.00,2015-09-02 18:03:00,
2015-09-02 14:08:00,92.2,73.7,30.01,NW,309,0.0,2.0,55,0.00,,---,0.00,VWS V15.00,2015-09-02 18:08:00,
2015-09-02 14:13:00,92.3,73.8,30.01,NW,309,1.0,4.0,55,0.00,,---,0.00,VWS V15.00,2015-09-02 18:13:00,
2015-09-02 14:18:00,91.6,74.2,30.01,NW,315,0.0,4.0,57,0.00,,---,0.00,VWS V15.00,2015-09-02 18:18:00,
2015-09-02 14:23:00,91.3,74.5,30.00,NW,315,0.0,4.0,58,0.00,,---,0.00,VWS V15.00,2015-09-02 18:23:00,
2015-09-02 14:28:00,91.4,75.1,30.00,NW,315,0.0,4.0,59,0.00,,---,0.00,VWS V15.00,2015-09-02 18:28:00,
2015-09-02 14:33:00,91.5,77.1,30.00,SSW,201,2.0,7.0,63,0.00,,---,0.00,VWS V15.00,2015-09-02 18:33:00,
2015-09-02 14:38:00,91.3,77.4,30.00,South,186,1.0,7.0,64,0.00,,---,0.00,VWS V15.00,2015-09-02 18:38:00,
2015-09-02 14:43:00,91.5,76.7,29.99,South,186,1.0,7.0,62,0.00,,---,0.00,VWS V15.00,2015-09-02 18:43:00,
2015-09-02 14:48:00,92.0,75.6,29.99,South,186,0.0,7.0,59,0.00,,---,0.00,VWS V15.00,2015-09-02 18:48:00,
2015-09-02 14:53:00,92.2,76.8,29.99,SSW,193,2.0,7.0,61,0.00,,---,0.00,VWS V15.00,2015-09-02 18:53:00,
2015-09-02 14:58:00,92.1,77.2,29.99,South,186,4.0,7.0,62,0.00,,---,0.00,VWS V15.00,2015-09-02 18:58:00,
2015-09-02 15:05:00,91.4,76.6,29.99,South,178,4.0,7.0,62,0.00,,---,0.00,VWS V15.00,2015-09-02 19:05:00,
2015-09-02 15:10:00,91.1,76.3,29.99,South,188,3.0,8.0,62,0.00,,---,0.00,VWS V15.00,2015-09-02 19:10:00,
2015-09-02 15:15:00,90.5,76.7,29.98,South,180,2.0,9.0,64,0.00,,---,0.00,VWS V15.00,2015-09-02 19:15:00,
2015-09-02 15:20:00,90.1,75.8,29.98,SSE,168,4.0,9.0,63,0.00,,---,0.00,VWS V15.00,2015-09-02 19:20:00,
2015-09-02 15:25:00,89.6,75.3,29.98,South,182,4.0,10.0,63,0.00,,---,0.00,VWS V15.00,2015-09-02 19:25:00,
2015-09-02 15:30:00,89.6,76.3,29.98,South,169,4.0,10.0,65,0.00,,---,0.00,VWS V15.00,2015-09-02 19:30:00,
2015-09-02 15:35:00,89.9,76.6,29.98,SSW,192,2.0,10.0,65,0.00,,---,0.00,VWS V15.00,2015-09-02 19:35:00,
2015-09-02 15:40:00,89.9,75.6,29.98,South,177,6.0,10.0,63,0.00,,---,0.00,VWS V15.00,2015-09-02 19:40:00,
2015-09-02 15:45:00,89.7,76.4,29.98,SW,215,6.0,11.0,65,0.00,,---,0.00,VWS V15.00,2015-09-02 19:45:00,
2015-09-02 15:50:00,89.2,75.4,29.98,South,171,7.0,11.0,64,0.00,,---,0.00,VWS V15.00,2015-09-02 19:50:00,
2015-09-02 15:55:00,88.9,75.6,29.98,South,190,0.0,11.0,65,0.00,,---,0.00,VWS V15.00,2015-09-02 19:55:00,
2015-09-02 16:00:00,88.9,75.2,29.97,South,191,6.0,11.0,64,0.00,,---,0.00,VWS V15.00,2015-09-02 20:00:00,
2015-09-02 16:05:00,88.8,75.1,29.97,SSW,192,2.0,9.0,64,0.00,,---,0.00,VWS V15.00,2015-09-02 20:05:00,
2015-09-02 16:10:00,89.1,75.3,29.97,South,188,7.0,9.0,64,0.00,,---,0.00,VWS V15.00,2015-09-02 20:10:00,
2015-09-02 16:15:00,89.0,74.8,29.97,SSW,201,3.0,9.0,63,0.00,,---,0.00,VWS V15.00,2015-09-02 20:15:00,
2015-09-02 16:20:00,88.8,75.1,29.96,South,190,3.0,9.0,64,0.00,,---,0.00,VWS V15.00,2015-09-02 20:20:00,
2015-09-02 16:25:00,88.8,75.5,29.96,South,187,6.0,9.0,65,0.00,,---,0.00,VWS V15.00,2015-09-02 20:25:00,
2015-09-02 16:30:00,89.0,75.7,29.96,South,188,6.0,9.0,65,0.00,,---,0.00,VWS V15.00,2015-09-02 20:30:00,
2015-09-02 16:35:00,89.1,76.3,29.96,SW,214,3.0,9.0,66,0.00,,---,0.00,VWS V15.00,2015-09-02 20:35:00,
2015-09-02 16:40:00,89.3,76.0,29.95,SSW,213,4.0,9.0,65,0.00,,---,0.00,VWS V15.00,2015-09-02 20:40:00,
2015-09-02 16:45:00,89.2,75.4,29.95,SW,225,0.0,9.0,64,0.00,,---,0.00,VWS V15.00,2015-09-02 20:45:00,
2015-09-02 16:50:00,89.3,75.5,29.95,SSW,206,7.0,9.0,64,0.00,,---,0.00,VWS V15.00,2015-09-02 20:50:00,
2015-09-02 16:55:00,89.0,75.2,29.95,SSW,198,6.0,9.0,64,0.00,,---,0.00,VWS V15.00,2015-09-02 20:55:00,
2015-09-02 17:00:00,88.4,75.6,29.95,SSW,194,3.0,9.0,66,0.00,,---,0.00,VWS V15.00,2015-09-02 21:00:00,
2015-09-02 17:05:00,88.2,75.4,29.95,SSW,194,3.0,7.0,66,0.00,,---,0.00,VWS V15.00,2015-09-02 21:05:00,
2015-09-02 17:10:00,88.3,76.0,29.95,SSW,200,2.0,7.0,67,0.00,,---,0.00,VWS V15.00,2015-09-02 21:10:00,
2015-09-02 17:15:00,88.3,76.0,29.95,SW,222,2.0,8.0,67,0.00,,---,0.00,VWS V15.00,2015-09-02 21:15:00,
2015-09-02 17:20:00,88.5,76.6,29.95,SSW,213,3.0,8.0,68,0.00,,---,0.00,VWS V15.00,2015-09-02 21:20:00,
2015-09-02 17:25:00,88.4,76.1,29.95,SSW,207,3.0,8.0,67,0.00,,---,0.00,VWS V15.00,2015-09-02 21:25:00,
2015-09-02 17:30:00,88.3,76.4,29.94,SSW,202,6.0,8.0,68,0.00,,---,0.00,VWS V15.00,2015-09-02 21:30:00,
2015-09-02 17:35:00,87.9,76.0,29.94,South,190,2.0,10.0,68,0.00,,---,0.00,VWS V15.00,2015-09-02 21:35:00,
2015-09-02 17:40:00,87.7,75.8,29.94,SSW,196,5.0,10.0,68,0.00,,---,0.00,VWS V15.00,2015-09-02 21:40:00,
2015-09-02 17:45:00,87.6,75.7,29.94,SSW,194,0.0,10.0,68,0.00,,---,0.00,VWS V15.00,2015-09-02 21:45:00,
2015-09-02 17:50:00,87.6,76.2,29.94,SSW,198,2.0,10.0,69,0.00,,---,0.00,VWS V15.00,2015-09-02 21:50:00,
2015-09-02 17:55:00,87.9,75.6,29.94,SSW,202,0.0,10.0,67,0.00,,---,0.00,VWS V15.00,2015-09-02 21:55:00,
2015-09-02 18:00:00,87.9,75.6,29.94,SSW,201,3.0,10.0,67,0.00,,---,0.00,VWS V15.00,2015-09-02 22:00:00,
2015-09-02 18:02:00,88.0,75.7,29.94,SSW,201,1.0,1.0,67,0.00,,---,0.00,VWS V15.00,2015-09-02 22:02:00,
2015-09-02 18:07:00,87.9,75.1,29.94,SSW,198,2.0,5.0,66,0.00,,---,0.00,VWS V15.00,2015-09-02 22:07:00,
2015-09-02 18:12:00,87.5,75.2,29.93,SSW,199,0.0,5.0,67,0.00,,---,0.00,VWS V15.00,2015-09-02 22:12:00,
2015-09-02 18:17:00,87.4,75.6,29.93,SSW,200,1.0,5.0,68,0.00,,---,0.00,VWS V15.00,2015-09-02 22:17:00,
2015-09-02 18:22:00,87.2,75.4,29.93,SSW,200,3.0,7.0,68,0.00,,---,0.00,VWS V15.00,2015-09-02 22:22:00,